createdAt,value
2018-03-02T00:00:08.648Z,17.02
2018-03-02T00:02:36.966Z,12.53
2018-03-02T00:05:05.264Z,15.40
2018-03-02T00:07:32.823Z,17.23
2018-03-02T00:10:01.189Z,15.42
2018-03-02T00:12:29.477Z,16.02
2018-03-02T00:14:57.770Z,17.10
2018-03-02T00:17:26.089Z,16.70
2018-03-02T00:19:54.376Z,18.73
2018-03-02T00:22:22.699Z,17.18
2018-03-02T00:24:51.025Z,16.70
2018-03-02T00:27:19.345Z,18.70
2018-03-02T00:29:47.643Z,16.02
2018-03-02T00:32:15.964Z,17.35
2018-03-02T00:34:44.255Z,15.35
2018-03-02T00:37:12.625Z,17.25
2018-03-02T00:39:40.918Z,18.08
2018-03-02T00:42:09.240Z,18.10
2018-03-02T00:44:37.527Z,17.27
2018-03-02T00:47:05.844Z,16.98
2018-03-02T00:49:34.132Z,17.47
2018-03-02T00:52:02.448Z,17.05
2018-03-02T00:54:30.755Z,16.53
2018-03-02T00:56:59.080Z,18.98
2018-03-02T00:59:27.367Z,18.15
2018-03-02T01:01:55.683Z,18.25
2018-03-02T01:04:24.025Z,17.98
2018-03-02T01:06:52.346Z,19.03
2018-03-02T01:09:20.636Z,16.28
2018-03-02T01:11:48.954Z,19.63
2018-03-02T01:14:17.256Z,17.60
2018-03-02T01:16:45.585Z,19.43
2018-03-02T01:19:13.879Z,17.53
2018-03-02T01:21:42.196Z,18.03
2018-03-02T01:24:10.488Z,17.70
2018-03-02T01:26:38.816Z,18.13
2018-03-02T01:29:07.108Z,17.83
2018-03-02T01:31:35.433Z,16.43
2018-03-02T01:34:03.733Z,17.45
2018-03-02T01:36:32.021Z,15.45
2018-03-02T01:39:00.347Z,17.60
2018-03-02T01:41:28.642Z,18.22
2018-03-02T01:43:56.957Z,17.33
2018-03-02T01:46:25.248Z,19.22
2018-03-02T01:48:53.565Z,19.08
2018-03-02T01:51:33.683Z,18.93
2018-03-02T01:54:02.003Z,18.48
2018-03-02T01:56:30.308Z,19.05
2018-03-02T01:58:58.625Z,18.18
2018-03-02T02:01:26.919Z,19.03
2018-03-02T02:03:55.240Z,18.50
2018-03-02T02:06:23.541Z,17.82
2018-03-02T02:08:51.868Z,17.20
2018-03-02T02:11:20.160Z,19.28
2018-03-02T02:13:48.481Z,18.82
2018-03-02T02:16:16.771Z,18.00
2018-03-02T02:18:45.085Z,18.77
2018-03-02T02:21:13.379Z,18.10
2018-03-02T02:23:41.701Z,17.37
2018-03-02T02:26:09.995Z,17.20
2018-03-02T02:28:38.316Z,18.97
2018-03-02T02:31:06.615Z,18.62
2018-03-02T02:33:34.936Z,19.43
2018-03-02T02:36:03.238Z,18.12
2018-03-02T02:38:31.569Z,19.02
2018-03-02T02:40:59.865Z,19.53
2018-03-02T02:43:28.180Z,19.30
2018-03-02T02:45:56.490Z,19.78
2018-03-02T02:48:24.816Z,18.93
2018-03-02T02:50:53.118Z,18.17
2018-03-02T02:53:21.437Z,18.15
2018-03-02T02:55:49.729Z,18.28
2018-03-02T02:58:18.044Z,16.90
2018-03-02T03:00:46.336Z,19.13
2018-03-02T03:03:14.652Z,18.32
2018-03-02T03:05:42.944Z,19.03
2018-03-02T03:08:11.272Z,18.08
2018-03-02T03:10:39.572Z,19.45
2018-03-02T03:13:07.904Z,19.53
2018-03-02T03:15:36.200Z,20.03
2018-03-02T03:18:04.519Z,17.17
2018-03-02T03:20:32.822Z,19.73
2018-03-02T03:23:01.144Z,19.75
2018-03-02T03:25:29.435Z,19.05
2018-03-02T03:27:57.788Z,20.38
2018-03-02T03:30:26.080Z,20.55
2018-03-02T03:32:54.396Z,19.45
2018-03-02T03:35:22.688Z,19.10
2018-03-02T03:37:51.011Z,20.43
2018-03-02T03:40:19.306Z,19.98
2018-03-02T03:42:47.636Z,19.00
2018-03-02T03:45:15.936Z,18.55
2018-03-02T03:47:44.230Z,19.28
2018-03-02T03:50:12.600Z,19.12
2018-03-02T03:52:40.892Z,20.85
2018-03-02T03:55:09.209Z,19.77
2018-03-02T03:57:37.505Z,20.62
2018-03-02T04:00:05.837Z,19.87
2018-03-02T04:02:34.127Z,19.35
2018-03-02T04:05:02.486Z,18.98
2018-03-02T04:07:30.799Z,18.42
2018-03-02T04:09:59.113Z,19.22
2018-03-02T04:12:27.408Z,19.33
2018-03-02T04:14:55.723Z,20.77
2018-03-02T04:17:24.021Z,19.85
2018-03-02T04:19:52.343Z,23.03
2018-03-02T04:22:20.636Z,21.72
2018-03-02T04:24:48.956Z,20.25
2018-03-02T04:27:17.252Z,20.28
2018-03-02T04:29:45.576Z,19.58
2018-03-02T04:32:13.863Z,20.23
2018-03-02T04:34:42.184Z,20.60
2018-03-02T04:37:10.476Z,21.23
2018-03-02T04:39:38.791Z,16.50
2018-03-02T04:42:07.075Z,21.60
2018-03-02T04:44:35.391Z,14.85
2018-03-02T04:47:02.928Z,21.43
2018-03-02T04:49:31.249Z,22.07
2018-03-02T04:51:59.540Z,20.45
2018-03-02T04:54:27.864Z,19.87
2018-03-02T04:56:56.156Z,20.60
2018-03-02T04:59:24.480Z,20.33
2018-03-02T05:01:52.769Z,22.13
2018-03-02T05:04:21.088Z,21.13
2018-03-02T05:06:49.379Z,21.38
2018-03-02T05:09:17.694Z,21.68
2018-03-02T05:11:45.988Z,21.40
2018-03-02T05:14:14.307Z,21.10
2018-03-02T05:16:42.604Z,20.42
2018-03-02T05:19:10.936Z,20.13
2018-03-02T05:21:39.252Z,21.58
2018-03-02T05:24:07.556Z,21.68
2018-03-02T05:26:35.848Z,20.03
2018-03-02T05:29:04.168Z,21.40
2018-03-02T05:31:32.471Z,21.83
2018-03-02T05:34:00.808Z,22.43
2018-03-02T05:36:29.100Z,21.27
2018-03-02T05:38:57.416Z,21.57
2018-03-02T05:41:25.708Z,23.05
2018-03-02T05:43:54.032Z,23.35
2018-03-02T05:46:22.327Z,22.92
2018-03-02T05:48:50.619Z,20.80
2018-03-02T05:51:18.939Z,21.43
2018-03-02T05:53:47.233Z,22.58
2018-03-02T05:56:15.557Z,22.07
2018-03-02T05:58:43.848Z,21.72
2018-03-02T06:01:12.163Z,21.25
2018-03-02T06:03:40.460Z,22.18
2018-03-02T06:06:08.776Z,25.18
2018-03-02T06:08:37.068Z,22.73
2018-03-02T06:11:05.383Z,23.65
2018-03-02T06:13:32.920Z,23.75
2018-03-02T06:16:01.268Z,28.53
2018-03-02T06:18:29.568Z,28.27
2018-03-02T06:20:57.883Z,31.22
2018-03-02T06:23:26.176Z,30.35
2018-03-02T06:25:54.492Z,27.62
2018-03-02T06:28:22.791Z,26.25
2018-03-02T06:30:51.112Z,34.82
2018-03-02T06:33:19.413Z,35.95
2018-03-02T06:35:47.728Z,32.08
2018-03-02T06:38:16.024Z,24.98
2018-03-02T06:40:44.340Z,26.60
2018-03-02T06:43:12.636Z,30.38
2018-03-02T06:45:40.948Z,22.55
2018-03-02T06:48:09.240Z,37.53
2018-03-02T06:50:37.565Z,23.08
2018-03-02T06:53:05.851Z,25.67
2018-03-02T06:55:34.164Z,24.30
2018-03-02T06:58:03.180Z,23.97
2018-03-02T07:00:31.498Z,25.53
2018-03-02T07:02:59.794Z,23.10
2018-03-02T07:05:28.111Z,24.30
2018-03-02T07:07:56.407Z,26.87
2018-03-02T07:10:24.732Z,23.73
2018-03-02T07:12:53.024Z,27.53
2018-03-02T07:15:21.340Z,25.28
2018-03-02T07:17:49.637Z,22.48
2018-03-02T07:20:17.985Z,24.38
2018-03-02T07:22:46.279Z,23.27
2018-03-02T07:25:14.595Z,21.60
2018-03-02T07:27:42.891Z,23.58
2018-03-02T07:30:11.212Z,23.93
2018-03-02T07:32:39.507Z,22.87
2018-03-02T07:35:07.829Z,23.67
2018-03-02T07:37:36.124Z,33.18
2018-03-02T07:40:04.445Z,23.67
2018-03-02T07:42:32.736Z,23.45
2018-03-02T07:45:01.053Z,21.03
2018-03-02T07:47:29.370Z,23.32
2018-03-02T07:49:57.660Z,24.55
2018-03-02T07:52:25.996Z,23.18
2018-03-02T07:54:54.289Z,22.43
2018-03-02T07:57:22.612Z,21.82
2018-03-02T07:59:50.907Z,22.00
2018-03-02T08:02:19.224Z,21.18
2018-03-02T08:04:47.519Z,24.82
2018-03-02T08:07:15.833Z,23.10
2018-03-02T08:09:44.137Z,24.40
2018-03-02T08:12:12.452Z,23.07
2018-03-02T08:14:40.747Z,21.57
2018-03-02T08:17:09.061Z,22.02
2018-03-02T08:19:37.354Z,22.85
2018-03-02T08:22:05.687Z,22.53
2018-03-02T08:24:33.984Z,21.42
2018-03-02T08:27:02.776Z,21.45
2018-03-02T08:29:31.064Z,23.25
2018-03-02T08:31:59.393Z,23.75
2018-03-02T08:34:27.684Z,23.65
2018-03-02T08:36:56.004Z,22.72
2018-03-02T08:39:24.304Z,21.85
2018-03-02T08:41:52.624Z,22.93
2018-03-02T08:44:20.926Z,22.83
2018-03-02T08:46:49.247Z,22.45
2018-03-02T08:49:17.545Z,25.55
2018-03-02T08:51:45.864Z,21.42
2018-03-02T08:54:14.168Z,23.60
2018-03-02T08:56:42.498Z,23.30
2018-03-02T08:59:10.792Z,21.73
2018-03-02T09:01:39.112Z,21.90
2018-03-02T09:04:07.420Z,21.42
2018-03-02T09:06:35.748Z,23.32
2018-03-02T09:09:04.045Z,23.18
2018-03-02T09:11:32.364Z,22.90
2018-03-02T09:14:00.656Z,23.55
2018-03-02T09:16:28.972Z,22.00
2018-03-02T09:18:57.260Z,22.17
2018-03-02T09:21:25.585Z,23.30
2018-03-02T09:23:53.882Z,21.65
2018-03-02T09:26:22.209Z,22.18
2018-03-02T09:28:50.508Z,19.88
2018-03-02T09:31:18.834Z,21.45
2018-03-02T09:33:47.130Z,23.67
2018-03-02T09:36:15.440Z,25.90
2018-03-02T09:38:43.756Z,21.72
2018-03-02T09:41:12.077Z,25.12
2018-03-02T09:43:40.374Z,23.85
2018-03-02T09:46:08.693Z,23.62
2018-03-02T09:48:37.016Z,25.12
2018-03-02T09:51:05.312Z,25.22
2018-03-02T09:53:33.637Z,22.50
2018-03-02T09:56:01.931Z,24.20
2018-03-02T09:58:30.248Z,23.92
2018-03-02T10:00:58.539Z,23.92
2018-03-02T10:03:26.856Z,23.08
2018-03-02T10:05:54.383Z,21.83
2018-03-02T10:08:22.708Z,23.77
2018-03-02T10:10:50.991Z,25.82
2018-03-02T10:13:19.309Z,22.60
2018-03-02T10:15:47.608Z,24.97
2018-03-02T10:18:15.932Z,25.40
2018-03-02T10:20:44.249Z,22.72
2018-03-02T10:23:12.563Z,22.83
2018-03-02T10:25:40.860Z,23.75
2018-03-02T10:28:09.178Z,25.02
2018-03-02T10:30:37.469Z,25.62
2018-03-02T10:33:05.793Z,24.10
2018-03-02T10:35:34.100Z,23.48
2018-03-02T10:38:02.415Z,23.00
2018-03-02T10:40:30.720Z,24.75
2018-03-02T10:42:59.045Z,23.38
2018-03-02T10:45:27.349Z,24.83
2018-03-02T10:47:55.668Z,24.58
2018-03-02T10:50:23.967Z,23.95
2018-03-02T10:52:52.288Z,24.47
2018-03-02T10:55:20.601Z,23.22
2018-03-02T10:57:48.931Z,20.57
2018-03-02T11:00:22.894Z,24.10
2018-03-02T11:02:57.229Z,24.07
2018-03-02T11:05:31.137Z,21.92
2018-03-02T11:07:59.526Z,25.58
2018-03-02T11:10:27.790Z,25.83
2018-03-02T11:12:56.109Z,22.90
2018-03-02T11:15:24.413Z,24.07
2018-03-02T11:17:52.731Z,23.85
2018-03-02T11:20:21.024Z,24.08
2018-03-02T11:22:48.573Z,23.70
2018-03-02T11:25:16.886Z,22.67
2018-03-02T11:27:45.212Z,24.52
2018-03-02T11:30:13.508Z,25.27
2018-03-02T11:32:41.828Z,24.33
2018-03-02T11:35:10.124Z,24.97
2018-03-02T11:37:38.436Z,23.68
2018-03-02T11:40:06.734Z,22.08
2018-03-02T11:42:35.065Z,24.87
2018-03-02T11:45:03.360Z,22.60
2018-03-02T11:47:31.682Z,23.87
2018-03-02T11:50:00.224Z,23.87
2018-03-02T11:52:28.544Z,25.33
2018-03-02T11:54:56.857Z,25.77
2018-03-02T11:57:25.189Z,26.47
2018-03-02T11:59:53.487Z,24.25
2018-03-02T12:02:21.785Z,24.68
2018-03-02T12:04:50.112Z,25.83
2018-03-02T12:07:18.412Z,24.62
2018-03-02T12:09:46.727Z,24.40
2018-03-02T12:12:15.012Z,24.93
2018-03-02T12:14:43.337Z,23.68
2018-03-02T12:17:11.637Z,24.70
2018-03-02T12:19:39.956Z,25.08
2018-03-02T12:22:08.254Z,23.18
2018-03-02T12:24:36.605Z,26.37
2018-03-02T12:27:04.132Z,25.95
2018-03-02T12:29:32.456Z,23.07
2018-03-02T12:32:00.744Z,24.50
2018-03-02T12:34:29.061Z,25.33
2018-03-02T12:36:57.352Z,26.82
2018-03-02T12:39:25.667Z,24.70
2018-03-02T12:41:53.195Z,25.02
2018-03-02T12:44:21.508Z,26.65
2018-03-02T12:46:49.800Z,26.65
2018-03-02T12:49:18.122Z,26.42
2018-03-02T12:51:46.421Z,25.13
2018-03-02T12:54:14.741Z,26.48
2018-03-02T12:56:43.032Z,25.62
2018-03-02T12:59:11.344Z,24.77
2018-03-02T13:01:39.632Z,26.07
2018-03-02T13:04:07.945Z,23.95
2018-03-02T13:06:36.236Z,21.42
2018-03-02T13:09:04.561Z,26.03
2018-03-02T13:11:32.851Z,24.37
2018-03-02T13:14:01.171Z,26.97
2018-03-02T13:16:29.460Z,25.67
2018-03-02T13:18:57.780Z,24.92
2018-03-02T13:21:26.067Z,25.53
2018-03-02T13:23:54.384Z,26.78
2018-03-02T13:26:34.469Z,25.73
2018-03-02T13:29:02.792Z,25.27
2018-03-02T13:31:31.084Z,25.60
2018-03-02T13:34:11.116Z,25.82
2018-03-02T13:36:39.413Z,26.30
2018-03-02T13:39:07.724Z,25.77
2018-03-02T13:41:47.967Z,26.33
2018-03-02T13:44:16.284Z,24.05
2018-03-02T13:46:44.568Z,28.82
2018-03-02T13:49:24.868Z,25.77
2018-03-02T13:51:53.160Z,26.53
2018-03-02T13:54:21.468Z,27.17
2018-03-02T13:57:01.549Z,27.72
2018-03-02T13:59:29.899Z,27.23
2018-03-02T14:01:58.183Z,26.47
2018-03-02T14:04:50.145Z,26.57
2018-03-02T14:07:18.440Z,24.78
2018-03-02T14:09:46.758Z,28.00
2018-03-02T14:12:15.049Z,26.43
2018-03-02T14:14:43.364Z,26.00
2018-03-02T14:17:11.656Z,27.20
2018-03-02T14:19:39.980Z,26.62
2018-03-02T14:22:08.268Z,28.32
2018-03-02T14:24:36.581Z,31.85
2018-03-02T14:27:04.871Z,27.60
2018-03-02T14:29:33.185Z,28.25
2018-03-02T14:32:01.472Z,24.82
2018-03-02T14:34:29.789Z,27.55
2018-03-02T14:36:58.085Z,28.03
2018-03-02T14:39:26.400Z,29.58
2018-03-02T14:41:54.702Z,27.70
2018-03-02T14:44:22.289Z,28.55
2018-03-02T14:46:50.602Z,29.52
2018-03-02T14:49:18.929Z,27.52
2018-03-02T14:51:47.254Z,27.52
2018-03-02T14:54:15.592Z,27.95
2018-03-02T14:56:43.133Z,28.37
2018-03-02T14:59:11.448Z,28.55
2018-03-02T15:01:39.751Z,28.38
2018-03-02T15:04:08.078Z,28.27
2018-03-02T15:06:36.374Z,30.63
2018-03-02T15:09:04.680Z,30.33
2018-03-02T15:11:33.011Z,31.80
2018-03-02T15:14:01.312Z,32.22
2018-03-02T15:16:29.649Z,30.68
2018-03-02T15:18:57.970Z,30.43
2018-03-02T15:21:26.317Z,29.80
2018-03-02T15:23:53.855Z,28.87
2018-03-02T15:26:22.173Z,30.08
2018-03-02T15:28:50.464Z,31.90
2018-03-02T15:31:18.792Z,33.95
2018-03-02T15:33:47.091Z,31.17
2018-03-02T15:36:15.407Z,30.50
2018-03-02T15:38:43.703Z,28.37
2018-03-02T15:41:12.021Z,29.30
2018-03-02T15:43:40.320Z,31.92
2018-03-02T15:46:08.652Z,31.02
2018-03-02T15:48:36.948Z,32.80
2018-03-02T15:51:05.276Z,30.27
2018-03-02T15:53:33.576Z,29.53
2018-03-02T15:56:01.909Z,32.00
2018-03-02T15:58:30.209Z,29.40
2018-03-02T16:00:58.528Z,29.85
2018-03-02T16:03:26.886Z,27.52
2018-03-02T16:05:55.220Z,29.60
2018-03-02T16:08:23.507Z,29.30
2018-03-02T16:10:51.820Z,32.35
2018-03-02T16:13:20.110Z,31.90
2018-03-02T16:15:48.464Z,31.33
2018-03-02T16:18:16.756Z,31.58
2018-03-02T16:20:45.074Z,32.12
2018-03-02T16:23:13.364Z,31.88
2018-03-02T16:25:41.684Z,30.55
2018-03-02T16:28:09.972Z,31.03
2018-03-02T16:30:38.297Z,31.25
2018-03-02T16:33:06.596Z,32.07
2018-03-02T16:35:34.916Z,30.63
2018-03-02T16:38:03.214Z,31.82
2018-03-02T16:40:31.542Z,32.95
2018-03-02T16:42:59.847Z,34.00
2018-03-02T16:45:28.164Z,30.42
2018-03-02T16:47:56.456Z,31.83
2018-03-02T16:50:24.787Z,31.60
2018-03-02T16:52:53.084Z,30.38
2018-03-02T16:55:20.637Z,31.05
2018-03-02T16:57:48.940Z,31.87
2018-03-02T17:00:17.283Z,31.72
2018-03-02T17:02:45.584Z,31.73
2018-03-02T17:05:13.880Z,34.17
2018-03-02T17:07:42.206Z,32.10
2018-03-02T17:10:10.509Z,42.97
2018-03-02T17:12:38.824Z,32.20
2018-03-02T17:15:07.120Z,32.75
2018-03-02T17:17:35.435Z,33.98
2018-03-02T17:20:03.741Z,31.58
2018-03-02T17:22:32.059Z,31.83
2018-03-02T17:25:00.361Z,32.08
2018-03-02T17:27:28.690Z,29.22
2018-03-02T17:29:56.999Z,30.85
2018-03-02T17:32:25.325Z,29.98
2018-03-02T17:34:53.625Z,32.68
2018-03-02T17:37:21.943Z,31.88
2018-03-02T17:39:50.245Z,33.92
2018-03-02T17:42:18.572Z,29.70
2018-03-02T17:44:46.915Z,33.05
2018-03-02T17:47:15.208Z,32.67
2018-03-02T17:49:43.500Z,34.72
2018-03-02T17:52:11.830Z,34.37
2018-03-02T17:54:40.128Z,32.23
2018-03-02T17:57:08.444Z,34.98
2018-03-02T17:59:36.743Z,34.23
2018-03-02T18:02:05.064Z,32.90
2018-03-02T18:04:33.359Z,33.18
2018-03-02T18:07:01.686Z,30.13
2018-03-02T18:09:29.984Z,35.13
2018-03-02T18:11:58.300Z,33.32
2018-03-02T18:14:26.605Z,29.83
2018-03-02T18:16:54.916Z,31.77
2018-03-02T18:19:23.212Z,32.68
2018-03-02T18:21:51.538Z,32.30
2018-03-02T18:24:19.839Z,33.97
2018-03-02T18:26:48.193Z,35.83
2018-03-02T18:29:16.487Z,32.87
2018-03-02T18:31:44.813Z,30.82
2018-03-02T18:34:13.105Z,34.40
2018-03-02T18:36:41.420Z,35.92
2018-03-02T18:39:09.720Z,35.08
2018-03-02T18:41:38.048Z,33.80
2018-03-02T18:44:06.347Z,35.83
2018-03-02T18:46:34.676Z,38.08
2018-03-02T18:49:02.981Z,38.92
2018-03-02T18:51:31.317Z,36.27
2018-03-02T18:53:59.615Z,36.17
2018-03-02T18:56:27.937Z,36.12
2018-03-02T18:58:56.232Z,36.75
2018-03-02T19:01:24.564Z,34.67
2018-03-02T19:03:52.864Z,34.22
2018-03-02T19:06:21.174Z,38.58
2018-03-02T19:08:49.563Z,37.82
2018-03-02T19:11:17.862Z,34.93
2018-03-02T19:13:46.190Z,34.45
2018-03-02T19:16:14.508Z,32.73
2018-03-02T19:18:42.832Z,35.12
2018-03-02T19:21:11.149Z,36.33
2018-03-02T19:23:39.473Z,35.85
2018-03-02T19:26:07.774Z,33.83
2018-03-02T19:28:36.144Z,37.70
2018-03-02T19:31:04.480Z,38.28
2018-03-02T19:33:32.793Z,37.10
2018-03-02T19:36:01.095Z,35.55
2018-03-02T19:38:29.424Z,33.25
2018-03-02T19:40:57.729Z,32.53
2018-03-02T19:43:26.053Z,37.52
2018-03-02T19:45:54.358Z,33.90
2018-03-02T19:48:22.685Z,35.22
2018-03-02T19:50:50.975Z,34.05
2018-03-02T19:53:19.292Z,36.03
2018-03-02T19:55:47.592Z,34.65
2018-03-02T19:58:15.932Z,35.53
2018-03-02T20:00:44.226Z,35.70
2018-03-02T20:03:12.559Z,35.12
2018-03-02T20:05:40.870Z,33.08
2018-03-02T20:08:09.185Z,32.88
2018-03-02T20:10:37.477Z,34.85
2018-03-02T20:13:05.800Z,34.60
2018-03-02T20:15:34.109Z,34.65
2018-03-02T20:18:02.471Z,36.73
2018-03-02T20:20:30.785Z,36.20
2018-03-02T20:22:59.148Z,36.02
2018-03-02T20:25:27.450Z,39.08
2018-03-02T20:27:55.776Z,36.65
2018-03-02T20:30:24.067Z,35.58
2018-03-02T20:32:52.380Z,33.77
2018-03-02T20:35:20.684Z,43.18
2018-03-02T20:37:49.009Z,47.70
2018-03-02T20:40:17.313Z,48.43
2018-03-02T20:42:44.880Z,40.28
2018-03-02T20:45:13.172Z,36.65
2018-03-02T20:47:40.738Z,36.23
2018-03-02T20:50:09.041Z,41.97
2018-03-02T20:52:36.669Z,37.52
2018-03-02T20:55:04.921Z,33.15
2018-03-02T20:57:33.252Z,35.58
2018-03-02T21:00:01.560Z,42.92
2018-03-02T21:02:29.884Z,37.50
2018-03-02T21:04:58.217Z,34.90
2018-03-02T21:07:26.521Z,34.05
2018-03-02T21:09:54.836Z,38.65
2018-03-02T21:12:23.128Z,36.88
2018-03-02T21:14:51.452Z,42.27
2018-03-02T21:17:19.761Z,39.20
2018-03-02T21:19:48.091Z,37.75
2018-03-02T21:22:16.416Z,46.72
2018-03-02T21:24:44.736Z,40.23
2018-03-02T21:27:13.059Z,62.45
2018-03-02T21:29:41.393Z,40.70
2018-03-02T21:32:09.864Z,37.13
2018-03-02T21:34:38.257Z,34.32
2018-03-02T21:37:06.501Z,34.45
2018-03-02T21:39:34.812Z,36.50
2018-03-02T21:42:03.114Z,36.70
2018-03-02T21:44:32.171Z,37.55
2018-03-02T21:47:00.472Z,35.65
2018-03-02T21:49:28.784Z,33.42
2018-03-02T21:51:57.086Z,37.48
2018-03-02T21:54:25.407Z,34.68
2018-03-02T21:56:53.700Z,37.42
2018-03-02T21:59:22.021Z,37.22
2018-03-02T22:01:50.315Z,37.03
2018-03-02T22:04:18.634Z,34.87
2018-03-02T22:06:46.924Z,35.58
2018-03-02T22:09:15.240Z,35.08
2018-03-02T22:11:43.540Z,38.65
2018-03-02T22:14:11.877Z,57.23
2018-03-02T22:16:40.169Z,47.17
2018-03-02T22:19:08.485Z,38.88
2018-03-02T22:21:36.775Z,39.12
2018-03-02T22:24:05.109Z,37.22
2018-03-02T22:26:33.409Z,39.00
2018-03-02T22:29:01.725Z,37.25
2018-03-02T22:31:30.028Z,38.97
2018-03-02T22:33:58.339Z,39.85
2018-03-02T22:36:26.629Z,37.77
2018-03-02T22:38:54.977Z,35.67
2018-03-02T22:41:23.268Z,36.12
2018-03-02T22:43:51.588Z,36.42
2018-03-02T22:46:19.888Z,36.48
2018-03-02T22:48:48.203Z,36.57
2018-03-02T22:51:16.501Z,34.60
2018-03-02T22:53:44.820Z,33.25
2018-03-02T22:56:13.114Z,36.33
2018-03-02T22:58:41.912Z,34.23
2018-03-02T23:01:10.200Z,34.57
2018-03-02T23:03:38.520Z,37.98
2018-03-02T23:06:06.808Z,35.25
2018-03-02T23:08:35.105Z,35.67
2018-03-02T23:11:03.424Z,38.05
2018-03-02T23:13:31.724Z,38.52
2018-03-02T23:16:00.056Z,62.90
2018-03-02T23:18:28.355Z,36.42
2018-03-02T23:20:56.740Z,35.13
2018-03-02T23:23:25.009Z,36.65
2018-03-02T23:25:53.324Z,33.32
2018-03-02T23:28:21.615Z,36.45
2018-03-02T23:30:49.937Z,38.40
2018-03-02T23:33:18.227Z,37.67
2018-03-02T23:35:46.540Z,36.35
2018-03-02T23:38:14.830Z,38.12
2018-03-02T23:40:43.144Z,38.63
2018-03-02T23:43:11.441Z,35.37
2018-03-02T23:45:39.764Z,34.77
2018-03-02T23:48:08.056Z,38.15
2018-03-02T23:50:36.376Z,34.72
2018-03-02T23:53:04.680Z,36.58
2018-03-02T23:55:32.996Z,35.88
2018-03-02T23:58:01.283Z,34.30
